sensor_id;sensor_type;location;lat;lon;timestamp;pressure;altitude;pressure_sealevel;temperature;humidity
49835;BME280;35729;52.090;13.162;2022-10-28T00:01:36;101648.94;;;14.31;83.76
49835;BME280;35729;52.090;13.162;2022-10-28T00:04:05;101645.41;;;14.32;83.98
49835;BME280;35729;52.090;13.162;2022-10-28T00:06:36;101641.88;;;14.31;83.96
49835;BME280;35729;52.090;13.162;2022-10-28T00:09:04;101654.13;;;14.34;83.88
49835;BME280;35729;52.090;13.162;2022-10-28T00:11:33;101655.88;;;14.35;83.99
49835;BME280;35729;52.090;13.162;2022-10-28T00:14:05;101656.75;;;14.34;83.73
49835;BME280;35729;52.090;13.162;2022-10-28T00:16:35;101647.00;;;14.38;83.88
49835;BME280;35729;52.090;13.162;2022-10-28T00:19:06;101638.16;;;14.40;83.92
49835;BME280;35729;52.090;13.162;2022-10-28T00:21:39;101646.97;;;14.39;83.60
49835;BME280;35729;52.090;13.162;2022-10-28T00:24:09;101651.31;;;14.42;83.63
49835;BME280;35729;52.090;13.162;2022-10-28T00:26:39;101654.78;;;14.44;83.67
49835;BME280;35729;52.090;13.162;2022-10-28T00:29:12;101650.38;;;14.44;83.59
49835;BME280;35729;52.090;13.162;2022-10-28T00:31:41;101646.81;;;14.45;83.48
49835;BME280;35729;52.090;13.162;2022-10-28T00:34:11;101640.69;;;14.45;83.41
49835;BME280;35729;52.090;13.162;2022-10-28T00:36:44;101644.16;;;14.47;83.50
49835;BME280;35729;52.090;13.162;2022-10-28T00:39:15;101639.75;;;14.47;83.46
49835;BME280;35729;52.090;13.162;2022-10-28T00:41:45;101633.56;;;14.48;83.48
49835;BME280;35729;52.090;13.162;2022-10-28T00:47:17;101636.25;;;14.47;83.43
49835;BME280;35729;52.090;13.162;2022-10-28T00:49:50;101626.53;;;14.47;83.19
49835;BME280;35729;52.090;13.162;2022-10-28T00:52:30;101625.69;;;14.47;83.37
49835;BME280;35729;52.090;13.162;2022-10-28T00:55:00;101630.97;;;14.47;83.41
49835;BME280;35729;52.090;13.162;2022-10-28T00:57:32;101630.97;;;14.47;83.54
49835;BME280;35729;52.090;13.162;2022-10-28T01:00:04;101620.41;;;14.45;83.52
49835;BME280;35729;52.090;13.162;2022-10-28T01:02:36;101630.97;;;14.45;83.37
49835;BME280;35729;52.090;13.162;2022-10-28T01:05:10;101620.41;;;14.45;83.34
49835;BME280;35729;52.090;13.162;2022-10-28T01:07:43;101620.41;;;14.45;83.41
49835;BME280;35729;52.090;13.162;2022-10-28T01:10:12;101625.69;;;14.45;83.40
49835;BME280;35729;52.090;13.162;2022-10-28T01:12:55;101619.53;;;14.46;83.63
49835;BME280;35729;52.090;13.162;2022-10-28T01:15:33;101615.13;;;14.45;83.22
49835;BME280;35729;52.090;13.162;2022-10-28T01:18:13;101615.19;;;14.44;83.25
49835;BME280;35729;52.090;13.162;2022-10-28T01:24:14;101616.03;;;14.44;83.57
49835;BME280;35729;52.090;13.162;2022-10-28T01:27:05;101614.34;;;14.43;83.55
49835;BME280;35729;52.090;13.162;2022-10-28T01:32:49;101613.50;;;14.41;83.38
49835;BME280;35729;52.090;13.162;2022-10-28T01:35:24;101617.03;;;14.40;83.34
49835;BME280;35729;52.090;13.162;2022-10-28T01:38:06;101613.56;;;14.38;83.54
49835;BME280;35729;52.090;13.162;2022-10-28T01:40:44;101619.75;;;14.37;83.54
49835;BME280;35729;52.090;13.162;2022-10-28T01:43:18;101611.88;;;14.34;83.46
49835;BME280;35729;52.090;13.162;2022-10-28T01:45:53;101620.75;;;14.31;83.33
49835;BME280;35729;52.090;13.162;2022-10-28T01:48:31;101613.78;;;14.29;83.61
49835;BME280;35729;52.090;13.162;2022-10-28T01:51:04;101612.97;;;14.27;83.81
49835;BME280;35729;52.090;13.162;2022-10-28T01:53:37;101609.53;;;14.23;83.40
49835;BME280;35729;52.090;13.162;2022-10-28T01:56:09;101613.06;;;14.22;83.88
49835;BME280;35729;52.090;13.162;2022-10-28T01:58:46;101616.59;;;14.21;83.88
49835;BME280;35729;52.090;13.162;2022-10-28T02:01:16;101610.47;;;14.19;84.00
49835;BME280;35729;52.090;13.162;2022-10-28T02:03:50;101618.44;;;14.17;84.03
49835;BME280;35729;52.090;13.162;2022-10-28T02:06:20;101619.31;;;14.16;83.84
49835;BME280;35729;52.090;13.162;2022-10-28T02:09:02;101617.63;;;14.14;84.10
49835;BME280;35729;52.090;13.162;2022-10-28T02:12:07;101623.84;;;14.13;84.19
49835;BME280;35729;52.090;13.162;2022-10-28T02:15:11;101622.09;;;14.12;84.11
49835;BME280;35729;52.090;13.162;2022-10-28T02:17:52;101615.97;;;14.10;84.13
49835;BME280;35729;52.090;13.162;2022-10-28T02:20:33;101609.88;;;14.06;84.47
49835;BME280;35729;52.090;13.162;2022-10-28T02:23:12;101614.34;;;14.04;84.34
49835;BME280;35729;52.090;13.162;2022-10-28T02:25:45;101616.16;;;14.02;84.63
49835;BME280;35729;52.090;13.162;2022-10-28T02:28:18;101610.94;;;13.99;84.55
49835;BME280;35729;52.090;13.162;2022-10-28T02:30:54;101607.47;;;13.97;84.64
49835;BME280;35729;52.090;13.162;2022-10-28T02:33:30;101600.53;;;13.93;84.76
49835;BME280;35729;52.090;13.162;2022-10-28T02:36:06;101597.03;;;13.91;84.98
49835;BME280;35729;52.090;13.162;2022-10-28T02:38:38;101593.56;;;13.89;84.87
49835;BME280;35729;52.090;13.162;2022-10-28T02:41:14;101593.66;;;13.85;85.09
49835;BME280;35729;52.090;13.162;2022-10-28T02:43:45;101591.94;;;13.83;84.89
49835;BME280;35729;52.090;13.162;2022-10-28T02:46:15;101595.50;;;13.80;85.24
49835;BME280;35729;52.090;13.162;2022-10-28T02:48:48;101590.28;;;13.77;85.26
49835;BME280;35729;52.090;13.162;2022-10-28T02:51:27;101596.50;;;13.75;85.62
49835;BME280;35729;52.090;13.162;2022-10-28T02:54:00;101587.81;;;13.71;85.81
49835;BME280;35729;52.090;13.162;2022-10-28T02:56:32;101594.88;;;13.69;85.71
49835;BME280;35729;52.090;13.162;2022-10-28T02:59:02;101594.88;;;13.69;85.91
49835;BME280;35729;52.090;13.162;2022-10-28T03:01:31;101593.13;;;13.68;85.95
49835;BME280;35729;52.090;13.162;2022-10-28T03:03:59;101600.19;;;13.66;85.97
49835;BME280;35729;52.090;13.162;2022-10-28T03:06:31;101600.25;;;13.64;86.02
49835;BME280;35729;52.090;13.162;2022-10-28T03:09:00;101600.25;;;13.64;86.28
49835;BME280;35729;52.090;13.162;2022-10-28T03:11:28;101598.50;;;13.63;86.16
49835;BME280;35729;52.090;13.162;2022-10-28T03:13:57;101602.06;;;13.62;85.97
49835;BME280;35729;52.090;13.162;2022-10-28T03:16:25;101598.53;;;13.62;86.29
49835;BME280;35729;52.090;13.162;2022-10-28T03:18:54;101603.84;;;13.60;86.44
49835;BME280;35729;52.090;13.162;2022-10-28T03:21:22;101600.34;;;13.58;86.39
49835;BME280;35729;52.090;13.162;2022-10-28T03:23:54;101603.03;;;13.57;86.38
49835;BME280;35729;52.090;13.162;2022-10-28T03:26:22;101599.53;;;13.56;86.45
49835;BME280;35729;52.090;13.162;2022-10-28T03:28:51;101598.69;;;13.54;86.63
49835;BME280;35729;52.090;13.162;2022-10-28T03:31:19;101600.47;;;13.54;86.45
49835;BME280;35729;52.090;13.162;2022-10-28T03:33:48;101597.84;;;13.52;86.96
49835;BME280;35729;52.090;13.162;2022-10-28T03:36:16;101589.16;;;13.48;86.85
49835;BME280;35729;52.090;13.162;2022-10-28T03:38:45;101594.44;;;13.47;86.80
49835;BME280;35729;52.090;13.162;2022-10-28T03:41:16;101589.19;;;13.45;87.11
49835;BME280;35729;52.090;13.162;2022-10-28T03:43:44;101583.97;;;13.44;87.40
49835;BME280;35729;52.090;13.162;2022-10-28T03:46:13;101586.66;;;13.41;87.33
49835;BME280;35729;52.090;13.162;2022-10-28T03:48:41;101570.91;;;13.36;87.47
49835;BME280;35729;52.090;13.162;2022-10-28T03:51:09;101585.78;;;13.40;87.55
49835;BME280;35729;52.090;13.162;2022-10-28T03:53:38;101584.06;;;13.39;87.82
49835;BME280;35729;52.090;13.162;2022-10-28T03:56:07;101572.66;;;13.39;87.57
49835;BME280;35729;52.090;13.162;2022-10-28T03:58:38;101576.19;;;13.38;87.91
49835;BME280;35729;52.090;13.162;2022-10-28T04:01:06;101581.44;;;13.38;87.81
49835;BME280;35729;52.090;13.162;2022-10-28T04:03:35;101584.09;;;13.36;88.08
49835;BME280;35729;52.090;13.162;2022-10-28T04:06:04;101585.88;;;13.37;87.89
49835;BME280;35729;52.090;13.162;2022-10-28T04:08:34;101584.09;;;13.38;87.98
49835;BME280;35729;52.090;13.162;2022-10-28T04:11:03;101574.41;;;13.40;88.39
49835;BME280;35729;52.090;13.162;2022-10-28T04:13:31;101569.06;;;13.43;88.53
49835;BME280;35729;52.090;13.162;2022-10-28T04:16:03;101578.66;;;13.45;88.45
49835;BME280;35729;52.090;13.162;2022-10-28T04:18:32;101569.81;;;13.48;88.63
49835;BME280;35729;52.090;13.162;2022-10-28T04:21:00;101572.41;;;13.51;88.43
49835;BME280;35729;52.090;13.162;2022-10-28T04:23:29;101563.63;;;13.50;88.40
49835;BME280;35729;52.090;13.162;2022-10-28T04:25:58;101565.41;;;13.50;88.22
49835;BME280;35729;52.090;13.162;2022-10-28T04:28:26;101577.69;;;13.49;88.29
49835;BME280;35729;52.090;13.162;2022-10-28T04:30:55;101575.09;;;13.48;88.29
49835;BME280;35729;52.090;13.162;2022-10-28T04:33:26;101580.41;;;13.46;88.13
49835;BME280;35729;52.090;13.162;2022-10-28T04:35:54;101583.94;;;13.45;88.07
49835;BME280;35729;52.090;13.162;2022-10-28T04:38:23;101588.34;;;13.43;88.23
49835;BME280;35729;52.090;13.162;2022-10-28T04:40:51;101589.28;;;13.42;88.22
49835;BME280;35729;52.090;13.162;2022-10-28T04:43:20;101598.13;;;13.40;88.36
49835;BME280;35729;52.090;13.162;2022-10-28T04:45:48;101585.88;;;13.37;88.72
49835;BME280;35729;52.090;13.162;2022-10-28T04:48:17;101582.34;;;13.35;88.67
49835;BME280;35729;52.090;13.162;2022-10-28T04:50:48;101569.22;;;13.33;88.81
49835;BME280;35729;52.090;13.162;2022-10-28T04:53:17;101573.59;;;13.33;88.83
49835;BME280;35729;52.090;13.162;2022-10-28T04:55:46;101563.94;;;13.33;88.75
49835;BME280;35729;52.090;13.162;2022-10-28T04:58:14;101563.06;;;13.33;88.89
49835;BME280;35729;52.090;13.162;2022-10-28T05:00:43;101553.41;;;13.32;88.73
49835;BME280;35729;52.090;13.162;2022-10-28T05:03:12;101556.94;;;13.32;88.66
49835;BME280;35729;52.090;13.162;2022-10-28T05:05:40;101556.97;;;13.31;88.92
49835;BME280;35729;52.090;13.162;2022-10-28T05:08:11;101559.59;;;13.31;88.75
49835;BME280;35729;52.090;13.162;2022-10-28T05:10:40;101561.34;;;13.30;88.81
49835;BME280;35729;52.090;13.162;2022-10-28T05:13:09;101565.78;;;13.30;88.88
49835;BME280;35729;52.090;13.162;2022-10-28T05:15:38;101571.03;;;13.30;88.81
49835;BME280;35729;52.090;13.162;2022-10-28T05:18:07;101557.88;;;13.30;88.74
49835;BME280;35729;52.090;13.162;2022-10-28T05:20:35;101556.97;;;13.29;88.76
49835;BME280;35729;52.090;13.162;2022-10-28T05:23:04;101559.59;;;13.31;88.80
49835;BME280;35729;52.090;13.162;2022-10-28T05:25:35;101552.56;;;13.31;88.80
49835;BME280;35729;52.090;13.162;2022-10-28T05:28:04;101558.69;;;13.32;88.79
49835;BME280;35729;52.090;13.162;2022-10-28T05:30:32;101549.88;;;13.33;88.54
49835;BME280;35729;52.090;13.162;2022-10-28T05:33:01;101558.66;;;13.33;88.75
49835;BME280;35729;52.090;13.162;2022-10-28T05:35:30;101557.78;;;13.34;88.56
49835;BME280;35729;52.090;13.162;2022-10-28T05:37:58;101563.00;;;13.36;88.62
49835;BME280;35729;52.090;13.162;2022-10-28T05:40:27;101560.38;;;13.38;88.51
49835;BME280;35729;52.090;13.162;2022-10-28T05:42:59;101568.25;;;13.39;88.25
49835;BME280;35729;52.090;13.162;2022-10-28T05:45:28;101560.28;;;13.41;88.50
49835;BME280;35729;52.090;13.162;2022-10-28T05:47:56;101553.28;;;13.41;88.41
49835;BME280;35729;52.090;13.162;2022-10-28T05:50:25;101555.84;;;13.44;88.09
49835;BME280;35729;52.090;13.162;2022-10-28T05:52:55;101552.34;;;13.44;87.98
49835;BME280;35729;52.090;13.162;2022-10-28T05:55:26;101559.34;;;13.45;88.36
49835;BME280;35729;52.090;13.162;2022-10-28T05:57:58;101559.31;;;13.46;88.16
49835;BME280;35729;52.090;13.162;2022-10-28T06:00:27;101559.25;;;13.49;87.94
49835;BME280;35729;52.090;13.162;2022-10-28T06:03:01;101544.31;;;13.50;88.02
49835;BME280;35729;52.090;13.162;2022-10-28T06:05:33;101542.47;;;13.54;87.79
49835;BME280;35729;52.090;13.162;2022-10-28T06:08:03;101545.97;;;13.54;87.73
49835;BME280;35729;52.090;13.162;2022-10-28T06:10:32;101546.78;;;13.58;87.78
49835;BME280;35729;52.090;13.162;2022-10-28T06:13:03;101540.56;;;13.60;87.65
49835;BME280;35729;52.090;13.162;2022-10-28T06:15:33;101537.03;;;13.61;87.42
49835;BME280;35729;52.090;13.162;2022-10-28T06:18:08;101547.50;;;13.64;87.51
49835;BME280;35729;52.090;13.162;2022-10-28T06:20:36;101549.19;;;13.67;87.36
49835;BME280;35729;52.090;13.162;2022-10-28T06:23:04;101556.19;;;13.69;87.20
49835;BME280;35729;52.090;13.162;2022-10-28T06:25:33;101550.91;;;13.71;87.24
49835;BME280;35729;52.090;13.162;2022-10-28T06:28:04;101552.59;;;13.74;86.99
49835;BME280;35729;52.090;13.162;2022-10-28T06:30:34;101556.94;;;13.76;87.22
49835;BME280;35729;52.090;13.162;2022-10-28T06:33:02;101553.22;;;13.83;86.92
49835;BME280;35729;52.090;13.162;2022-10-28T06:35:31;101559.34;;;13.85;86.93
49835;BME280;35729;52.090;13.162;2022-10-28T06:37:59;101554.88;;;13.89;86.38
49835;BME280;35729;52.090;13.162;2022-10-28T06:40:28;101557.44;;;13.92;86.53
49835;BME280;35729;52.090;13.162;2022-10-28T06:42:57;101560.88;;;13.96;86.39
49835;BME280;35729;52.090;13.162;2022-10-28T06:45:29;101564.34;;;13.98;86.19
49835;BME280;35729;52.090;13.162;2022-10-28T06:47:58;101571.34;;;14.00;85.84
49835;BME280;35729;52.090;13.162;2022-10-28T06:50:28;101583.53;;;14.05;85.91
49835;BME280;35729;52.090;13.162;2022-10-28T06:52:57;101569.41;;;14.07;85.60
49835;BME280;35729;52.090;13.162;2022-10-28T06:55:26;101559.69;;;14.09;85.61
49835;BME280;35729;52.090;13.162;2022-10-28T06:57:58;101564.91;;;14.12;85.40
49835;BME280;35729;52.090;13.162;2022-10-28T07:00:30;101570.97;;;14.16;85.17
49835;BME280;35729;52.090;13.162;2022-10-28T07:02:59;101583.28;;;14.17;85.10
49835;BME280;35729;52.090;13.162;2022-10-28T07:05:28;101572.75;;;14.15;85.01
49835;BME280;35729;52.090;13.162;2022-10-28T07:07:56;101581.44;;;14.21;84.74
49835;BME280;35729;52.090;13.162;2022-10-28T07:10:25;101572.56;;;14.23;84.89
49835;BME280;35729;52.090;13.162;2022-10-28T07:12:53;101575.13;;;14.26;84.93
49835;BME280;35729;52.090;13.162;2022-10-28T07:15:22;101571.53;;;14.29;84.55
49835;BME280;35729;52.090;13.162;2022-10-28T07:17:54;101567.06;;;14.32;84.53
49835;BME280;35729;52.090;13.162;2022-10-28T07:20:24;101576.63;;;14.37;84.40
49835;BME280;35729;52.090;13.162;2022-10-28T07:22:57;101578.28;;;14.42;84.16
49835;BME280;35729;52.090;13.162;2022-10-28T07:25:27;101577.22;;;14.48;84.25
49835;BME280;35729;52.090;13.162;2022-10-28T07:27:56;101564.78;;;14.55;83.62
49835;BME280;35729;52.090;13.162;2022-10-28T07:30:25;101566.38;;;14.60;84.06
49835;BME280;35729;52.090;13.162;2022-10-28T07:32:57;101582.06;;;14.68;83.62
49835;BME280;35729;52.090;13.162;2022-10-28T07:35:25;101566.03;;;14.74;83.32
49835;BME280;35729;52.090;13.162;2022-10-28T07:38:00;101559.75;;;14.80;83.18
49835;BME280;35729;52.090;13.162;2022-10-28T07:40:29;101551.63;;;14.88;82.58
49835;BME280;35729;52.090;13.162;2022-10-28T07:42:57;101549.75;;;14.91;82.73
49835;BME280;35729;52.090;13.162;2022-10-28T07:45:26;101568.06;;;14.99;82.35
49835;BME280;35729;52.090;13.162;2022-10-28T07:47:57;101567.00;;;15.05;81.80
49835;BME280;35729;52.090;13.162;2022-10-28T07:50:25;101564.28;;;15.08;81.64
49835;BME280;35729;52.090;13.162;2022-10-28T07:52:54;101572.91;;;15.14;81.59
49835;BME280;35729;52.090;13.162;2022-10-28T07:55:23;101571.00;;;15.20;81.31
49835;BME280;35729;52.090;13.162;2022-10-28T07:57:51;101574.44;;;15.23;81.33
49835;BME280;35729;52.090;13.162;2022-10-28T08:00:20;101572.53;;;15.28;81.42
49835;BME280;35729;52.090;13.162;2022-10-28T08:02:48;101568.03;;;15.32;80.73
49835;BME280;35729;52.090;13.162;2022-10-28T08:05:19;101571.41;;;15.37;80.43
49835;BME280;35729;52.090;13.162;2022-10-28T08:07:48;101559.88;;;15.40;80.23
49835;BME280;35729;52.090;13.162;2022-10-28T08:10:16;101560.59;;;15.45;80.38
49835;BME280;35729;52.090;13.162;2022-10-28T08:12:45;101559.56;;;15.51;80.13
49835;BME280;35729;52.090;13.162;2022-10-28T08:15:13;101567.28;;;15.57;79.70
49835;BME280;35729;52.090;13.162;2022-10-28T08:17:42;101556.53;;;15.63;79.29
49835;BME280;35729;52.090;13.162;2022-10-28T08:20:11;101556.34;;;15.69;79.31
49835;BME280;35729;52.090;13.162;2022-10-28T08:22:42;101551.75;;;15.76;78.82
49835;BME280;35729;52.090;13.162;2022-10-28T08:25:11;101550.66;;;15.85;78.40
49835;BME280;35729;52.090;13.162;2022-10-28T08:27:39;101553.06;;;15.92;78.23
49835;BME280;35729;52.090;13.162;2022-10-28T08:30:09;101548.41;;;15.99;78.34
49835;BME280;35729;52.090;13.162;2022-10-28T08:32:37;101541.13;;;16.06;78.31
49835;BME280;35729;52.090;13.162;2022-10-28T08:35:07;101536.56;;;16.11;78.19
49835;BME280;35729;52.090;13.162;2022-10-28T08:37:36;101525.78;;;16.17;78.06
49835;BME280;35729;52.090;13.162;2022-10-28T08:40:10;101532.66;;;16.23;77.94
49835;BME280;35729;52.090;13.162;2022-10-28T08:42:43;101523.69;;;16.27;77.63
49835;BME280;35729;52.090;13.162;2022-10-28T08:45:18;101521.00;;;16.28;77.32
49835;BME280;35729;52.090;13.162;2022-10-28T08:47:54;101526.22;;;16.32;77.06
49835;BME280;35729;52.090;13.162;2022-10-28T08:50:29;101518.16;;;16.35;77.44
49835;BME280;35729;52.090;13.162;2022-10-28T08:53:00;101520.72;;;16.38;77.17
49835;BME280;35729;52.090;13.162;2022-10-28T08:55:38;101525.88;;;16.41;77.02
49835;BME280;35729;52.090;13.162;2022-10-28T08:58:11;101530.16;;;16.45;76.88
49835;BME280;35729;52.090;13.162;2022-10-28T09:00:52;101529.03;;;16.52;76.78
49835;BME280;35729;52.090;13.162;2022-10-28T09:03:30;101525.28;;;16.58;76.10
49835;BME280;35729;52.090;13.162;2022-10-28T09:06:02;101525.06;;;16.66;76.04
49835;BME280;35729;52.090;13.162;2022-10-28T09:08:34;101524.03;;;16.70;75.74
49835;BME280;35729;52.090;13.162;2022-10-28T09:11:15;101527.31;;;16.76;74.99
49835;BME280;35729;52.090;13.162;2022-10-28T09:13:57;101527.22;;;16.80;74.94
49835;BME280;35729;52.090;13.162;2022-10-28T09:16:38;101540.28;;;16.84;75.49
49835;BME280;35729;52.090;13.162;2022-10-28T09:19:19;101540.19;;;16.87;75.13
49835;BME280;35729;52.090;13.162;2022-10-28T09:21:56;101535.69;;;16.91;75.36
49835;BME280;35729;52.090;13.162;2022-10-28T09:24:36;101536.53;;;16.91;75.22
49835;BME280;35729;52.090;13.162;2022-10-28T09:27:15;101531.03;;;16.98;74.93
49835;BME280;35729;52.090;13.162;2022-10-28T09:29:52;101534.44;;;17.01;74.64
49835;BME280;35729;52.090;13.162;2022-10-28T09:32:35;101536.09;;;17.04;74.53
49835;BME280;35729;52.090;13.162;2022-10-28T09:35:10;101533.25;;;17.08;74.71
49835;BME280;35729;52.090;13.162;2022-10-28T09:37:43;101535.75;;;17.13;75.24
49835;BME280;35729;52.090;13.162;2022-10-28T09:40:15;101520.59;;;17.17;74.38
49835;BME280;35729;52.090;13.162;2022-10-28T09:42:53;101519.50;;;17.22;74.53
49835;BME280;35729;52.090;13.162;2022-10-28T09:45:26;101529.03;;;17.28;74.48
49835;BME280;35729;52.090;13.162;2022-10-28T09:47:59;101524.41;;;17.33;74.53
49835;BME280;35729;52.090;13.162;2022-10-28T09:50:31;101512.66;;;17.40;74.05
49835;BME280;35729;52.090;13.162;2022-10-28T09:53:03;101520.25;;;17.50;74.07
49835;BME280;35729;52.090;13.162;2022-10-28T09:55:36;101522.66;;;17.56;73.96
49835;BME280;35729;52.090;13.162;2022-10-28T09:58:09;101513.56;;;17.63;73.15
49835;BME280;35729;52.090;13.162;2022-10-28T10:00:39;101509.00;;;17.67;73.57
49835;BME280;35729;52.090;13.162;2022-10-28T10:03:08;101509.53;;;17.75;73.24
49835;BME280;35729;52.090;13.162;2022-10-28T10:05:41;101507.50;;;17.82;73.00
49835;BME280;35729;52.090;13.162;2022-10-28T10:08:13;101515.13;;;17.91;72.85
49835;BME280;35729;52.090;13.162;2022-10-28T10:10:47;101510.38;;;17.99;72.77
49835;BME280;35729;52.090;13.162;2022-10-28T10:13:23;101503.03;;;18.06;72.04
49835;BME280;35729;52.090;13.162;2022-10-28T10:15:55;101503.66;;;18.13;72.65
49835;BME280;35729;52.090;13.162;2022-10-28T10:18:27;101498.75;;;18.24;73.09
49835;BME280;35729;52.090;13.162;2022-10-28T10:20:58;101500.09;;;18.34;72.38
49835;BME280;35729;52.090;13.162;2022-10-28T10:23:28;101492.72;;;18.41;72.13
49835;BME280;35729;52.090;13.162;2022-10-28T10:26:00;101501.22;;;18.49;71.88
49835;BME280;35729;52.090;13.162;2022-10-28T10:28:34;101486.94;;;18.52;71.60
49835;BME280;35729;52.090;13.162;2022-10-28T10:31:04;101495.38;;;18.62;71.96
49835;BME280;35729;52.090;13.162;2022-10-28T10:33:36;101494.25;;;18.67;71.52
49835;BME280;35729;52.090;13.162;2022-10-28T10:36:13;101498.38;;;18.75;70.77
49835;BME280;35729;52.090;13.162;2022-10-28T10:38:46;101488.31;;;18.81;71.16
49835;BME280;35729;52.090;13.162;2022-10-28T10:41:34;101490.63;;;18.89;69.39
49835;BME280;35729;52.090;13.162;2022-10-28T10:44:23;101482.34;;;18.97;68.70
49835;BME280;35729;52.090;13.162;2022-10-28T10:47:18;101483.03;;;19.02;68.75
49835;BME280;35729;52.090;13.162;2022-10-28T10:49:47;101486.16;;;19.10;69.31
49835;BME280;35729;52.090;13.162;2022-10-28T10:52:20;101476.25;;;19.14;68.58
49835;BME280;35729;52.090;13.162;2022-10-28T10:55:02;101475.09;;;19.19;68.71
49835;BME280;35729;52.090;13.162;2022-10-28T10:57:32;101479.28;;;19.25;68.75
49835;BME280;35729;52.090;13.162;2022-10-28T11:00:05;101472.03;;;19.29;67.60
49835;BME280;35729;52.090;13.162;2022-10-28T11:02:36;101469.13;;;19.33;68.02
49835;BME280;35729;52.090;13.162;2022-10-28T11:05:08;101463.59;;;19.38;67.93
49835;BME280;35729;52.090;13.162;2022-10-28T11:07:44;101460.72;;;19.43;66.19
49835;BME280;35729;52.090;13.162;2022-10-28T11:10:20;101464.13;;;19.46;66.61
49835;BME280;35729;52.090;13.162;2022-10-28T11:12:51;101461.22;;;19.51;67.10
49835;BME280;35729;52.090;13.162;2022-10-28T11:15:25;101452.22;;;19.53;66.29
49835;BME280;35729;52.090;13.162;2022-10-28T11:17:59;101457.31;;;19.58;66.78
49835;BME280;35729;52.090;13.162;2022-10-28T11:20:30;101444.81;;;19.60;66.10
49835;BME280;35729;52.090;13.162;2022-10-28T11:23:13;101434.94;;;19.62;66.11
49835;BME280;35729;52.090;13.162;2022-10-28T11:25:49;101431.97;;;19.68;66.72
49835;BME280;35729;52.090;13.162;2022-10-28T11:28:35;101432.69;;;19.72;66.10
49835;BME280;35729;52.090;13.162;2022-10-28T11:31:34;101434.22;;;19.78;66.40
49835;BME280;35729;52.090;13.162;2022-10-28T11:34:19;101434.88;;;19.83;66.42
49835;BME280;35729;52.090;13.162;2022-10-28T11:36:56;101424.84;;;19.88;66.68
49835;BME280;35729;52.090;13.162;2022-10-28T11:39:33;101431.66;;;19.94;66.56
49835;BME280;35729;52.090;13.162;2022-10-28T11:42:12;101424.28;;;19.99;65.89
49835;BME280;35729;52.090;13.162;2022-10-28T11:44:47;101422.19;;;20.06;66.14
49835;BME280;35729;52.090;13.162;2022-10-28T11:47:32;101431.56;;;20.13;65.96
49835;BME280;35729;52.090;13.162;2022-10-28T11:50:15;101428.53;;;20.21;65.91
49835;BME280;35729;52.090;13.162;2022-10-28T11:53:08;101423.66;;;20.29;65.74
49835;BME280;35729;52.090;13.162;2022-10-28T11:55:41;101414.34;;;20.38;65.63
49835;BME280;35729;52.090;13.162;2022-10-28T11:58:18;101407.56;;;20.48;65.63
49835;BME280;35729;52.090;13.162;2022-10-28T12:00:59;101408.03;;;20.56;64.48
49835;BME280;35729;52.090;13.162;2022-10-28T12:03:52;101397.72;;;20.66;64.49
49835;BME280;35729;52.090;13.162;2022-10-28T12:06:31;101403.56;;;20.74;63.41
49835;BME280;35729;52.090;13.162;2022-10-28T12:09:11;101403.03;;;20.83;63.17
49835;BME280;35729;52.090;13.162;2022-10-28T12:11:56;101407.94;;;20.91;61.57
49835;BME280;35729;52.090;13.162;2022-10-28T12:14:38;101409.34;;;20.98;62.62
49835;BME280;35729;52.090;13.162;2022-10-28T12:17:15;101401.84;;;21.05;62.67
49835;BME280;35729;52.090;13.162;2022-10-28T12:19:52;101411.25;;;21.12;62.44
49835;BME280;35729;52.090;13.162;2022-10-28T12:22:27;101406.41;;;21.19;62.34
49835;BME280;35729;52.090;13.162;2022-10-28T12:25:00;101401.78;;;21.23;61.62
49835;BME280;35729;52.090;13.162;2022-10-28T12:27:36;101412.00;;;21.30;61.02
49835;BME280;35729;52.090;13.162;2022-10-28T12:30:15;101405.22;;;21.41;61.44
49835;BME280;35729;52.090;13.162;2022-10-28T12:32:48;101403.56;;;21.54;61.09
49835;BME280;35729;52.090;13.162;2022-10-28T12:35:23;101398.03;;;21.73;60.71
49835;BME280;35729;52.090;13.162;2022-10-28T12:37:56;101396.88;;;21.93;60.35
49835;BME280;35729;52.090;13.162;2022-10-28T12:40:30;101391.94;;;22.16;60.03
49835;BME280;35729;52.090;13.162;2022-10-28T12:43:05;101396.03;;;22.38;59.66
49835;BME280;35729;52.090;13.162;2022-10-28T12:45:39;101397.34;;;22.59;59.55
49835;BME280;35729;52.090;13.162;2022-10-28T12:48:15;101400.72;;;22.77;58.59
49835;BME280;35729;52.090;13.162;2022-10-28T12:50:51;101398.78;;;22.94;57.99
49835;BME280;35729;52.090;13.162;2022-10-28T12:53:29;101398.66;;;23.10;56.50
49835;BME280;35729;52.090;13.162;2022-10-28T12:56:05;101396.94;;;23.23;57.68
49835;BME280;35729;52.090;13.162;2022-10-28T12:58:39;101398.94;;;23.34;57.48
49835;BME280;35729;52.090;13.162;2022-10-28T13:01:12;101396.47;;;23.44;56.19
49835;BME280;35729;52.090;13.162;2022-10-28T13:03:41;101393.94;;;23.55;57.17
49835;BME280;35729;52.090;13.162;2022-10-28T13:06:37;101398.31;;;23.71;55.65
49835;BME280;35729;52.090;13.162;2022-10-28T13:12:24;101391.84;;;24.01;54.67
49835;BME280;35729;52.090;13.162;2022-10-28T13:15:14;101395.41;;;24.14;54.24
49835;BME280;35729;52.090;13.162;2022-10-28T13:17:54;101388.25;;;24.28;54.88
49835;BME280;35729;52.090;13.162;2022-10-28T13:20:40;101387.88;;;24.45;54.20
49835;BME280;35729;52.090;13.162;2022-10-28T13:23:23;101386.06;;;24.59;54.25